createdAt,value
2022-08-23T00:00:25.465Z,5.95
2022-08-23T00:05:26.913Z,5.68
2022-08-23T00:10:42.616Z,6.18
2022-08-23T00:15:45.771Z,5.13
2022-08-23T00:20:43.193Z,5.75
2022-08-23T00:25:45.485Z,5.07
2022-08-23T00:30:47.051Z,4.97
2022-08-23T00:35:44.550Z,3.70
2022-08-23T00:40:43.850Z,4.28
2022-08-23T00:46:20.879Z,5.18
2022-08-23T00:51:25.695Z,4.95
2022-08-23T00:56:29.981Z,5.20
2022-08-23T01:01:34.316Z,4.38
2022-08-23T01:06:45.771Z,4.35
2022-08-23T01:11:56.437Z,5.30
2022-08-23T01:16:58.048Z,4.63
2022-08-23T01:22:02.173Z,4.50
2022-08-23T01:27:01.660Z,5.20
2022-08-23T01:32:05.311Z,4.30
2022-08-23T01:37:21.602Z,4.07
2022-08-23T01:42:20.683Z,4.30
2022-08-23T01:47:18.083Z,4.70
2022-08-23T01:52:16.874Z,4.30
2022-08-23T01:57:16.742Z,4.07
2022-08-23T02:02:19.438Z,4.05
2022-08-23T02:07:17.162Z,4.43
2022-08-23T02:12:14.778Z,4.75
2022-08-23T02:17:12.387Z,4.55
2022-08-23T02:22:18.393Z,4.45
2022-08-23T02:27:17.578Z,4.35
2022-08-23T02:32:20.839Z,4.53
2022-08-23T02:37:43.596Z,5.20
2022-08-23T02:42:45.264Z,4.38
2022-08-23T02:47:56.667Z,4.90
2022-08-23T02:52:59.486Z,4.47
2022-08-23T02:57:59.661Z,4.68
2022-08-23T03:02:57.261Z,4.15
2022-08-23T03:08:15.213Z,4.65
2022-08-23T03:13:23.208Z,4.93
2022-08-23T03:18:21.861Z,4.07
2022-08-23T03:23:20.489Z,6.05
2022-08-23T03:28:21.108Z,4.70
2022-08-23T03:33:23.072Z,5.63
2022-08-23T03:38:33.963Z,6.00
2022-08-23T03:43:39.564Z,5.53
2022-08-23T03:48:42.181Z,5.80
2022-08-23T03:53:40.623Z,7.10
2022-08-23T03:58:38.046Z,7.70
2022-08-23T04:03:42.435Z,7.63
2022-08-23T04:08:41.377Z,7.72
2022-08-23T04:13:39.218Z,7.47
2022-08-23T04:18:36.845Z,9.35
2022-08-23T04:23:38.993Z,7.90
2022-08-23T04:28:45.001Z,7.85
2022-08-23T04:33:43.347Z,6.88
2022-08-23T04:38:43.873Z,7.75
2022-08-23T04:43:50.221Z,6.95
2022-08-23T04:48:47.990Z,7.72
2022-08-23T04:53:47.068Z,7.82
2022-08-23T04:59:52.759Z,8.40
2022-08-23T05:04:52.864Z,8.68
2022-08-23T05:10:06.275Z,9.85
2022-08-23T05:15:09.114Z,10.20
2022-08-23T05:20:17.162Z,10.00
2022-08-23T05:25:15.205Z,10.85
2022-08-23T05:30:16.741Z,9.07
2022-08-23T05:35:14.809Z,10.10
2022-08-23T05:40:15.021Z,9.32
2022-08-23T05:51:21.386Z,8.75
2022-08-23T05:56:23.830Z,9.32
2022-08-23T06:01:24.325Z,7.88
2022-08-23T06:06:40.582Z,7.97
2022-08-23T06:11:46.226Z,8.50
2022-08-23T06:17:38.790Z,8.52
2022-08-23T06:22:50.294Z,6.40
2022-08-23T06:27:47.970Z,9.50
2022-08-23T06:32:46.067Z,6.38
2022-08-23T06:38:03.296Z,6.25
2022-08-23T06:43:37.351Z,6.30
2022-08-23T06:48:56.212Z,5.80
2022-08-23T06:53:55.108Z,5.53
2022-08-23T06:59:23.371Z,5.93
2022-08-23T07:04:39.762Z,5.25
2022-08-23T07:09:40.361Z,5.97
2022-08-23T07:14:38.269Z,6.65
2022-08-23T07:19:37.791Z,6.40
2022-08-23T07:24:35.470Z,6.57
2022-08-23T07:29:36.178Z,7.10
2022-08-23T07:34:34.005Z,6.55
2022-08-23T07:39:32.092Z,7.53
2022-08-23T07:44:30.271Z,7.10
2022-08-23T14:31:32.480Z,2.13
2022-08-23T14:42:58.517Z,1.65
2022-08-23T14:48:45.607Z,1.88
2022-08-23T15:01:18.444Z,11.82
2022-08-23T15:33:50.618Z,18.25
2022-08-23T15:46:07.231Z,14.73
2022-08-23T16:12:10.135Z,12.57
2022-08-23T17:43:05.733Z,0.10
2022-08-23T17:48:35.697Z,0.88
2022-08-23T18:13:13.820Z,0.70
2022-08-23T18:30:39.548Z,0.15
2022-08-23T20:33:41.370Z,8.10
2022-08-23T23:26:07.827Z,7.18
2022-08-23T23:32:48.517Z,6.07
2022-08-23T23:56:34.366Z,5.57
